sensor_id;sensor_type;location;lat;lon;timestamp;P1;durP1;ratioP1;P2;durP2;ratioP2
13034;SDS011;6584;48.022;11.810;2022-11-15T00:00:16;8.20;;;6.35;;
13034;SDS011;6584;48.022;11.810;2022-11-15T00:02:42;7.93;;;6.65;;
13034;SDS011;6584;48.022;11.810;2022-11-15T00:05:07;7.95;;;6.85;;
13034;SDS011;6584;48.022;11.810;2022-11-15T00:07:33;8.77;;;7.10;;
13034;SDS011;6584;48.022;11.810;2022-11-15T00:09:58;7.97;;;6.70;;
13034;SDS011;6584;48.022;11.810;2022-11-15T00:12:24;9.00;;;6.82;;
13034;SDS011;6584;48.022;11.810;2022-11-15T00:14:51;7.78;;;6.90;;
13034;SDS011;6584;48.022;11.810;2022-11-15T00:17:17;6.95;;;6.30;;
13034;SDS011;6584;48.022;11.810;2022-11-15T00:19:42;8.88;;;7.75;;
13034;SDS011;6584;48.022;11.810;2022-11-15T00:22:08;10.45;;;9.07;;
13034;SDS011;6584;48.022;11.810;2022-11-15T00:24:33;11.13;;;8.38;;
13034;SDS011;6584;48.022;11.810;2022-11-15T00:26:59;9.50;;;8.07;;
13034;SDS011;6584;48.022;11.810;2022-11-15T00:29:24;9.77;;;8.07;;
13034;SDS011;6584;48.022;11.810;2022-11-15T00:31:50;10.30;;;8.30;;
13034;SDS011;6584;48.022;11.810;2022-11-15T00:34:16;8.63;;;7.72;;
13034;SDS011;6584;48.022;11.810;2022-11-15T00:36:41;11.00;;;9.50;;
13034;SDS011;6584;48.022;11.810;2022-11-15T00:39:07;10.27;;;9.18;;
13034;SDS011;6584;48.022;11.810;2022-11-15T00:41:32;8.55;;;7.65;;
13034;SDS011;6584;48.022;11.810;2022-11-15T00:43:58;10.70;;;8.18;;
13034;SDS011;6584;48.022;11.810;2022-11-15T00:46:23;9.70;;;8.57;;
13034;SDS011;6584;48.022;11.810;2022-11-15T00:48:50;10.30;;;8.20;;
13034;SDS011;6584;48.022;11.810;2022-11-15T00:51:16;9.18;;;8.18;;
13034;SDS011;6584;48.022;11.810;2022-11-15T00:53:41;8.80;;;7.53;;
13034;SDS011;6584;48.022;11.810;2022-11-15T00:56:07;8.60;;;7.00;;
13034;SDS011;6584;48.022;11.810;2022-11-15T00:58:32;8.25;;;6.68;;
13034;SDS011;6584;48.022;11.810;2022-11-15T01:01:11;7.10;;;5.70;;
13034;SDS011;6584;48.022;11.810;2022-11-15T01:03:39;7.50;;;5.85;;
13034;SDS011;6584;48.022;11.810;2022-11-15T01:06:06;6.35;;;5.38;;
13034;SDS011;6584;48.022;11.810;2022-11-15T01:08:33;6.82;;;5.68;;
13034;SDS011;6584;48.022;11.810;2022-11-15T01:11:08;6.20;;;5.60;;
13034;SDS011;6584;48.022;11.810;2022-11-15T01:13:36;5.68;;;5.15;;
13034;SDS011;6584;48.022;11.810;2022-11-15T01:16:06;5.78;;;5.15;;
13034;SDS011;6584;48.022;11.810;2022-11-15T01:18:33;7.05;;;5.57;;
13034;SDS011;6584;48.022;11.810;2022-11-15T01:20:59;6.10;;;5.50;;
13034;SDS011;6584;48.022;11.810;2022-11-15T01:23:24;5.93;;;5.32;;
13034;SDS011;6584;48.022;11.810;2022-11-15T01:25:50;5.70;;;5.10;;
13034;SDS011;6584;48.022;11.810;2022-11-15T01:28:16;6.95;;;5.68;;
13034;SDS011;6584;48.022;11.810;2022-11-15T01:30:41;5.38;;;4.88;;
13034;SDS011;6584;48.022;11.810;2022-11-15T01:33:07;5.45;;;4.95;;
13034;SDS011;6584;48.022;11.810;2022-11-15T01:35:32;5.40;;;4.90;;
13034;SDS011;6584;48.022;11.810;2022-11-15T01:37:58;5.05;;;4.50;;
13034;SDS011;6584;48.022;11.810;2022-11-15T01:40:23;6.65;;;4.60;;
13034;SDS011;6584;48.022;11.810;2022-11-15T01:42:49;5.60;;;5.07;;
13034;SDS011;6584;48.022;11.810;2022-11-15T01:45:15;5.05;;;4.55;;
13034;SDS011;6584;48.022;11.810;2022-11-15T01:47:42;5.63;;;4.97;;
13034;SDS011;6584;48.022;11.810;2022-11-15T01:50:14;5.20;;;4.70;;
13034;SDS011;6584;48.022;11.810;2022-11-15T01:52:44;5.53;;;4.38;;
13034;SDS011;6584;48.022;11.810;2022-11-15T01:57:40;5.03;;;4.20;;
13034;SDS011;6584;48.022;11.810;2022-11-15T02:00:09;4.13;;;3.72;;
13034;SDS011;6584;48.022;11.810;2022-11-15T02:02:35;4.13;;;3.80;;
13034;SDS011;6584;48.022;11.810;2022-11-15T02:05:02;4.03;;;3.70;;
13034;SDS011;6584;48.022;11.810;2022-11-15T02:07:28;3.83;;;3.45;;
13034;SDS011;6584;48.022;11.810;2022-11-15T02:09:57;3.95;;;3.55;;
13034;SDS011;6584;48.022;11.810;2022-11-15T02:12:26;3.70;;;3.30;;
13034;SDS011;6584;48.022;11.810;2022-11-15T02:14:52;3.55;;;3.25;;
13034;SDS011;6584;48.022;11.810;2022-11-15T02:31:44;3.30;;;2.70;;
13034;SDS011;6584;48.022;11.810;2022-11-15T02:34:50;3.22;;;2.92;;
13034;SDS011;6584;48.022;11.810;2022-11-15T02:37:31;3.45;;;3.15;;
13034;SDS011;6584;48.022;11.810;2022-11-15T02:40:17;3.75;;;3.30;;
13034;SDS011;6584;48.022;11.810;2022-11-15T02:42:50;3.75;;;3.35;;
13034;SDS011;6584;48.022;11.810;2022-11-15T02:45:40;3.70;;;3.28;;
13034;SDS011;6584;48.022;11.810;2022-11-15T02:48:11;3.30;;;3.00;;
13034;SDS011;6584;48.022;11.810;2022-11-15T02:50:37;3.40;;;3.10;;
13034;SDS011;6584;48.022;11.810;2022-11-15T02:53:03;4.55;;;3.20;;
13034;SDS011;6584;48.022;11.810;2022-11-15T02:55:33;3.38;;;3.03;;
13034;SDS011;6584;48.022;11.810;2022-11-15T03:00:53;4.55;;;3.30;;
13034;SDS011;6584;48.022;11.810;2022-11-15T03:03:40;3.90;;;3.50;;
13034;SDS011;6584;48.022;11.810;2022-11-15T03:08:43;4.30;;;3.40;;
13034;SDS011;6584;48.022;11.810;2022-11-15T03:11:27;4.25;;;3.78;;
13034;SDS011;6584;48.022;11.810;2022-11-15T03:22:12;5.35;;;4.13;;
13034;SDS011;6584;48.022;11.810;2022-11-15T03:24:46;4.78;;;3.85;;
13034;SDS011;6584;48.022;11.810;2022-11-15T03:27:15;4.78;;;4.25;;
13034;SDS011;6584;48.022;11.810;2022-11-15T03:29:50;5.28;;;4.25;;
13034;SDS011;6584;48.022;11.810;2022-11-15T03:32:25;4.75;;;4.20;;
13034;SDS011;6584;48.022;11.810;2022-11-15T03:34:57;5.00;;;4.50;;
13034;SDS011;6584;48.022;11.810;2022-11-15T03:37:31;5.45;;;4.30;;
13034;SDS011;6584;48.022;11.810;2022-11-15T03:40:02;4.75;;;3.75;;
13034;SDS011;6584;48.022;11.810;2022-11-15T03:45:15;4.25;;;3.85;;
13034;SDS011;6584;48.022;11.810;2022-11-15T03:50:23;4.13;;;3.70;;
13034;SDS011;6584;48.022;11.810;2022-11-15T03:52:50;3.58;;;3.28;;
13034;SDS011;6584;48.022;11.810;2022-11-15T03:55:19;3.90;;;3.50;;
13034;SDS011;6584;48.022;11.810;2022-11-15T03:57:46;4.03;;;3.70;;
13034;SDS011;6584;48.022;11.810;2022-11-15T04:00:13;4.82;;;4.00;;
13034;SDS011;6584;48.022;11.810;2022-11-15T04:02:39;4.70;;;4.28;;
13034;SDS011;6584;48.022;11.810;2022-11-15T04:05:04;4.72;;;4.32;;
13034;SDS011;6584;48.022;11.810;2022-11-15T04:07:30;5.80;;;4.35;;
13034;SDS011;6584;48.022;11.810;2022-11-15T04:09:56;4.40;;;3.95;;
13034;SDS011;6584;48.022;11.810;2022-11-15T04:12:37;4.82;;;3.97;;
13034;SDS011;6584;48.022;11.810;2022-11-15T04:15:16;4.10;;;3.63;;
13034;SDS011;6584;48.022;11.810;2022-11-15T04:17:48;5.55;;;4.60;;
13034;SDS011;6584;48.022;11.810;2022-11-15T04:23:05;5.55;;;4.95;;
13034;SDS011;6584;48.022;11.810;2022-11-15T04:25:52;4.95;;;4.45;;
13034;SDS011;6584;48.022;11.810;2022-11-15T04:28:19;5.05;;;4.55;;
13034;SDS011;6584;48.022;11.810;2022-11-15T04:30:46;5.60;;;4.18;;
13034;SDS011;6584;48.022;11.810;2022-11-15T04:33:11;4.13;;;3.72;;
13034;SDS011;6584;48.022;11.810;2022-11-15T04:35:37;4.07;;;3.65;;
13034;SDS011;6584;48.022;11.810;2022-11-15T04:38:03;4.70;;;4.03;;
13034;SDS011;6584;48.022;11.810;2022-11-15T04:40:30;4.70;;;4.00;;
13034;SDS011;6584;48.022;11.810;2022-11-15T04:42:56;4.57;;;4.13;;
13034;SDS011;6584;48.022;11.810;2022-11-15T04:45:22;5.53;;;3.72;;
13034;SDS011;6584;48.022;11.810;2022-11-15T04:47:48;4.03;;;3.50;;
13034;SDS011;6584;48.022;11.810;2022-11-15T04:50:14;4.10;;;3.47;;
13034;SDS011;6584;48.022;11.810;2022-11-15T04:52:41;4.32;;;3.60;;
13034;SDS011;6584;48.022;11.810;2022-11-15T04:55:07;4.07;;;3.50;;
13034;SDS011;6584;48.022;11.810;2022-11-15T04:57:36;3.95;;;3.55;;
13034;SDS011;6584;48.022;11.810;2022-11-15T05:00:04;3.50;;;3.20;;
13034;SDS011;6584;48.022;11.810;2022-11-15T05:02:31;4.80;;;3.70;;
13034;SDS011;6584;48.022;11.810;2022-11-15T05:05:16;3.90;;;3.50;;
13034;SDS011;6584;48.022;11.810;2022-11-15T05:07:42;4.25;;;3.80;;
13034;SDS011;6584;48.022;11.810;2022-11-15T05:10:07;4.28;;;3.65;;
13034;SDS011;6584;48.022;11.810;2022-11-15T05:12:33;5.20;;;4.30;;
13034;SDS011;6584;48.022;11.810;2022-11-15T05:14:59;5.05;;;4.55;;
13034;SDS011;6584;48.022;11.810;2022-11-15T05:17:25;5.00;;;4.38;;
13034;SDS011;6584;48.022;11.810;2022-11-15T05:19:50;5.70;;;4.10;;
13034;SDS011;6584;48.022;11.810;2022-11-15T05:22:17;5.68;;;4.65;;
13034;SDS011;6584;48.022;11.810;2022-11-15T05:24:43;4.80;;;4.30;;
13034;SDS011;6584;48.022;11.810;2022-11-15T05:27:08;5.55;;;4.57;;
13034;SDS011;6584;48.022;11.810;2022-11-15T05:29:34;4.50;;;3.97;;
13034;SDS011;6584;48.022;11.810;2022-11-15T05:32:00;4.40;;;4.00;;
13034;SDS011;6584;48.022;11.810;2022-11-15T05:34:25;5.72;;;3.83;;
13034;SDS011;6584;48.022;11.810;2022-11-15T05:36:52;4.45;;;4.05;;
13034;SDS011;6584;48.022;11.810;2022-11-15T05:39:18;5.93;;;4.30;;
13034;SDS011;6584;48.022;11.810;2022-11-15T05:41:50;4.07;;;3.38;;
13034;SDS011;6584;48.022;11.810;2022-11-15T05:44:21;4.07;;;3.40;;
13034;SDS011;6584;48.022;11.810;2022-11-15T05:46:51;4.03;;;3.33;;
13034;SDS011;6584;48.022;11.810;2022-11-15T05:49:19;4.22;;;3.50;;
13034;SDS011;6584;48.022;11.810;2022-11-15T05:51:48;4.55;;;3.75;;
13034;SDS011;6584;48.022;11.810;2022-11-15T05:54:16;3.60;;;3.30;;
13034;SDS011;6584;48.022;11.810;2022-11-15T05:56:44;3.95;;;3.58;;
13034;SDS011;6584;48.022;11.810;2022-11-15T05:59:10;4.15;;;3.40;;
13034;SDS011;6584;48.022;11.810;2022-11-15T06:01:36;4.05;;;3.60;;
13034;SDS011;6584;48.022;11.810;2022-11-15T06:04:03;5.43;;;4.55;;
13034;SDS011;6584;48.022;11.810;2022-11-15T06:06:28;6.68;;;4.82;;
13034;SDS011;6584;48.022;11.810;2022-11-15T06:08:54;5.32;;;3.80;;
13034;SDS011;6584;48.022;11.810;2022-11-15T06:11:20;4.55;;;3.70;;
13034;SDS011;6584;48.022;11.810;2022-11-15T06:13:45;7.57;;;4.18;;
13034;SDS011;6584;48.022;11.810;2022-11-15T06:16:11;3.97;;;3.58;;
13034;SDS011;6584;48.022;11.810;2022-11-15T06:18:37;3.83;;;3.38;;
13034;SDS011;6584;48.022;11.810;2022-11-15T06:21:03;5.10;;;4.15;;
13034;SDS011;6584;48.022;11.810;2022-11-15T06:23:31;4.80;;;4.30;;
13034;SDS011;6584;48.022;11.810;2022-11-15T06:25:59;4.32;;;3.92;;
13034;SDS011;6584;48.022;11.810;2022-11-15T06:28:27;4.75;;;4.25;;
13034;SDS011;6584;48.022;11.810;2022-11-15T06:30:54;4.15;;;3.50;;
13034;SDS011;6584;48.022;11.810;2022-11-15T06:33:19;5.38;;;3.88;;
13034;SDS011;6584;48.022;11.810;2022-11-15T06:35:45;5.97;;;3.90;;
13034;SDS011;6584;48.022;11.810;2022-11-15T06:38:11;4.45;;;3.78;;
13034;SDS011;6584;48.022;11.810;2022-11-15T06:40:37;4.93;;;3.75;;
13034;SDS011;6584;48.022;11.810;2022-11-15T06:43:03;7.00;;;4.28;;
13034;SDS011;6584;48.022;11.810;2022-11-15T06:45:30;4.78;;;4.15;;
13034;SDS011;6584;48.022;11.810;2022-11-15T06:47:56;5.75;;;4.10;;
13034;SDS011;6584;48.022;11.810;2022-11-15T06:50:22;5.47;;;4.43;;
13034;SDS011;6584;48.022;11.810;2022-11-15T06:52:48;4.78;;;4.20;;
13034;SDS011;6584;48.022;11.810;2022-11-15T06:55:14;6.18;;;4.32;;
13034;SDS011;6584;48.022;11.810;2022-11-15T06:57:49;6.30;;;4.20;;
13034;SDS011;6584;48.022;11.810;2022-11-15T07:00:17;5.47;;;4.97;;
13034;SDS011;6584;48.022;11.810;2022-11-15T07:02:44;5.00;;;4.32;;
13034;SDS011;6584;48.022;11.810;2022-11-15T07:05:10;6.40;;;5.75;;
13034;SDS011;6584;48.022;11.810;2022-11-15T07:07:37;6.53;;;5.63;;
13034;SDS011;6584;48.022;11.810;2022-11-15T07:10:02;7.50;;;4.80;;
13034;SDS011;6584;48.022;11.810;2022-11-15T07:12:29;6.18;;;5.03;;
13034;SDS011;6584;48.022;11.810;2022-11-15T07:14:54;5.30;;;4.07;;
13034;SDS011;6584;48.022;11.810;2022-11-15T07:17:20;5.25;;;4.15;;
13034;SDS011;6584;48.022;11.810;2022-11-15T07:19:45;4.80;;;3.80;;
13034;SDS011;6584;48.022;11.810;2022-11-15T07:22:11;4.65;;;3.80;;
13034;SDS011;6584;48.022;11.810;2022-11-15T07:24:36;3.50;;;3.20;;
13034;SDS011;6584;48.022;11.810;2022-11-15T07:27:02;3.70;;;3.17;;
13034;SDS011;6584;48.022;11.810;2022-11-15T07:29:28;3.25;;;2.92;;
13034;SDS011;6584;48.022;11.810;2022-11-15T07:32:11;4.30;;;3.33;;
13034;SDS011;6584;48.022;11.810;2022-11-15T07:34:37;4.53;;;3.53;;
13034;SDS011;6584;48.022;11.810;2022-11-15T07:37:03;3.38;;;3.08;;
13034;SDS011;6584;48.022;11.810;2022-11-15T07:39:28;4.00;;;3.10;;
13034;SDS011;6584;48.022;11.810;2022-11-15T07:41:54;4.72;;;2.97;;
13034;SDS011;6584;48.022;11.810;2022-11-15T07:44:39;3.70;;;3.40;;
13034;SDS011;6584;48.022;11.810;2022-11-15T07:47:05;6.47;;;3.63;;
13034;SDS011;6584;48.022;11.810;2022-11-15T07:49:30;4.88;;;3.70;;
13034;SDS011;6584;48.022;11.810;2022-11-15T07:51:56;6.30;;;5.47;;
13034;SDS011;6584;48.022;11.810;2022-11-15T07:54:21;14.25;;;10.02;;
13034;SDS011;6584;48.022;11.810;2022-11-15T07:56:47;8.23;;;7.05;;
13034;SDS011;6584;48.022;11.810;2022-11-15T07:59:12;9.95;;;8.02;;
13034;SDS011;6584;48.022;11.810;2022-11-15T08:01:38;9.50;;;8.25;;
13034;SDS011;6584;48.022;11.810;2022-11-15T08:04:04;4.32;;;3.90;;
13034;SDS011;6584;48.022;11.810;2022-11-15T08:06:29;5.68;;;3.95;;
13034;SDS011;6584;48.022;11.810;2022-11-15T08:08:55;4.00;;;3.58;;
13034;SDS011;6584;48.022;11.810;2022-11-15T08:11:20;4.38;;;3.70;;
13034;SDS011;6584;48.022;11.810;2022-11-15T08:13:46;4.60;;;4.10;;
13034;SDS011;6584;48.022;11.810;2022-11-15T08:16:11;6.00;;;5.32;;
13034;SDS011;6584;48.022;11.810;2022-11-15T08:18:37;8.05;;;7.20;;
13034;SDS011;6584;48.022;11.810;2022-11-15T08:21:03;3.70;;;3.38;;
13034;SDS011;6584;48.022;11.810;2022-11-15T08:23:29;4.18;;;3.70;;
13034;SDS011;6584;48.022;11.810;2022-11-15T08:26:02;4.78;;;3.67;;
13034;SDS011;6584;48.022;11.810;2022-11-15T08:28:28;4.20;;;3.67;;
13034;SDS011;6584;48.022;11.810;2022-11-15T08:30:57;3.80;;;3.35;;
13034;SDS011;6584;48.022;11.810;2022-11-15T08:33:23;6.90;;;5.95;;
13034;SDS011;6584;48.022;11.810;2022-11-15T08:35:49;3.85;;;2.95;;
13034;SDS011;6584;48.022;11.810;2022-11-15T08:38:15;3.30;;;2.90;;
13034;SDS011;6584;48.022;11.810;2022-11-15T08:40:40;4.90;;;2.95;;
13034;SDS011;6584;48.022;11.810;2022-11-15T08:43:06;3.53;;;3.22;;
13034;SDS011;6584;48.022;11.810;2022-11-15T08:45:33;3.67;;;3.15;;
13034;SDS011;6584;48.022;11.810;2022-11-15T08:48:03;3.33;;;3.03;;
13034;SDS011;6584;48.022;11.810;2022-11-15T08:50:29;5.53;;;2.75;;
13034;SDS011;6584;48.022;11.810;2022-11-15T08:52:54;3.55;;;3.25;;
13034;SDS011;6584;48.022;11.810;2022-11-15T08:55:20;3.67;;;3.33;;
13034;SDS011;6584;48.022;11.810;2022-11-15T08:57:45;5.05;;;3.80;;
13034;SDS011;6584;48.022;11.810;2022-11-15T09:00:11;4.82;;;3.78;;
13034;SDS011;6584;48.022;11.810;2022-11-15T09:02:38;4.55;;;4.07;;
13034;SDS011;6584;48.022;11.810;2022-11-15T09:05:05;4.05;;;3.28;;
13034;SDS011;6584;48.022;11.810;2022-11-15T09:07:31;3.15;;;2.85;;
13034;SDS011;6584;48.022;11.810;2022-11-15T09:09:56;2.85;;;2.55;;
13034;SDS011;6584;48.022;11.810;2022-11-15T09:12:23;2.72;;;2.50;;
13034;SDS011;6584;48.022;11.810;2022-11-15T09:14:48;3.00;;;2.70;;
13034;SDS011;6584;48.022;11.810;2022-11-15T09:17:14;3.15;;;2.80;;
13034;SDS011;6584;48.022;11.810;2022-11-15T09:19:40;3.13;;;2.83;;
13034;SDS011;6584;48.022;11.810;2022-11-15T09:22:06;3.15;;;2.67;;
13034;SDS011;6584;48.022;11.810;2022-11-15T09:24:32;3.60;;;2.70;;
13034;SDS011;6584;48.022;11.810;2022-11-15T09:26:58;3.85;;;2.40;;
13034;SDS011;6584;48.022;11.810;2022-11-15T09:29:24;2.90;;;2.60;;
13034;SDS011;6584;48.022;11.810;2022-11-15T09:31:51;3.65;;;2.97;;
13034;SDS011;6584;48.022;11.810;2022-11-15T09:34:17;2.97;;;2.70;;
13034;SDS011;6584;48.022;11.810;2022-11-15T09:36:43;2.92;;;2.72;;
13034;SDS011;6584;48.022;11.810;2022-11-15T09:39:08;5.00;;;3.30;;
13034;SDS011;6584;48.022;11.810;2022-11-15T09:41:40;5.00;;;3.35;;
13034;SDS011;6584;48.022;11.810;2022-11-15T09:50:07;4.32;;;3.90;;
13034;SDS011;6584;48.022;11.810;2022-11-15T09:52:36;4.57;;;4.05;;
13034;SDS011;6584;48.022;11.810;2022-11-15T09:55:07;4.03;;;2.83;;
13034;SDS011;6584;48.022;11.810;2022-11-15T09:57:48;4.50;;;2.90;;
13034;SDS011;6584;48.022;11.810;2022-11-15T10:00:29;3.45;;;3.00;;
13034;SDS011;6584;48.022;11.810;2022-11-15T10:05:42;3.72;;;2.63;;
13034;SDS011;6584;48.022;11.810;2022-11-15T10:11:00;3.92;;;3.20;;
13034;SDS011;6584;48.022;11.810;2022-11-15T10:13:30;3.78;;;2.67;;
13034;SDS011;6584;48.022;11.810;2022-11-15T10:18:59;3.35;;;2.70;;
13034;SDS011;6584;48.022;11.810;2022-11-15T10:21:40;3.53;;;2.72;;
13034;SDS011;6584;48.022;11.810;2022-11-15T10:24:31;4.97;;;3.03;;
13034;SDS011;6584;48.022;11.810;2022-11-15T10:27:00;5.65;;;3.10;;
13034;SDS011;6584;48.022;11.810;2022-11-15T10:29:25;3.15;;;2.60;;
13034;SDS011;6584;48.022;11.810;2022-11-15T10:31:51;3.40;;;3.00;;
13034;SDS011;6584;48.022;11.810;2022-11-15T10:34:18;3.35;;;3.05;;
13034;SDS011;6584;48.022;11.810;2022-11-15T10:36:46;4.10;;;3.42;;
13034;SDS011;6584;48.022;11.810;2022-11-15T10:39:21;3.80;;;3.00;;
13034;SDS011;6584;48.022;11.810;2022-11-15T10:41:47;3.03;;;2.70;;
13034;SDS011;6584;48.022;11.810;2022-11-15T10:46:41;3.53;;;3.22;;
13034;SDS011;6584;48.022;11.810;2022-11-15T10:49:15;3.28;;;2.97;;
13034;SDS011;6584;48.022;11.810;2022-11-15T10:51:47;3.00;;;2.70;;
13034;SDS011;6584;48.022;11.810;2022-11-15T10:57:12;5.28;;;3.33;;
13034;SDS011;6584;48.022;11.810;2022-11-15T10:59:42;3.80;;;3.05;;
13034;SDS011;6584;48.022;11.810;2022-11-15T11:02:40;4.18;;;3.45;;
13034;SDS011;6584;48.022;11.810;2022-11-15T11:05:32;4.47;;;3.63;;
13034;SDS011;6584;48.022;11.810;2022-11-15T11:10:54;4.30;;;3.90;;
13034;SDS011;6584;48.022;11.810;2022-11-15T11:15:48;3.35;;;2.50;;
13034;SDS011;6584;48.022;11.810;2022-11-15T11:18:25;3.05;;;2.78;;
13034;SDS011;6584;48.022;11.810;2022-11-15T11:20:58;3.80;;;3.40;;
13034;SDS011;6584;48.022;11.810;2022-11-15T11:31:45;3.35;;;3.05;;
13034;SDS011;6584;48.022;11.810;2022-11-15T11:37:33;3.42;;;3.13;;
13034;SDS011;6584;48.022;11.810;2022-11-15T11:43:45;4.60;;;3.28;;
13034;SDS011;6584;48.022;11.810;2022-11-15T11:46:05;3.13;;;2.83;;
13034;SDS011;6584;48.022;11.810;2022-11-15T11:49:09;3.60;;;3.00;;
13034;SDS011;6584;48.022;11.810;2022-11-15T11:55:12;3.90;;;3.30;;
13034;SDS011;6584;48.022;11.810;2022-11-15T11:57:41;2.97;;;2.67;;
13034;SDS011;6584;48.022;11.810;2022-11-15T12:00:20;3.95;;;3.25;;
13034;SDS011;6584;48.022;11.810;2022-11-15T12:03:01;3.03;;;2.70;;
13034;SDS011;6584;48.022;11.810;2022-11-15T12:05:50;3.83;;;2.92;;
13034;SDS011;6584;48.022;11.810;2022-11-15T12:08:25;3.45;;;3.15;;
13034;SDS011;6584;48.022;11.810;2022-11-15T12:11:09;2.88;;;2.60;;
13034;SDS011;6584;48.022;11.810;2022-11-15T12:14:08;4.45;;;3.00;;
13034;SDS011;6584;48.022;11.810;2022-11-15T12:17:03;3.25;;;2.95;;
13034;SDS011;6584;48.022;11.810;2022-11-15T12:19:29;2.90;;;2.60;;
13034;SDS011;6584;48.022;11.810;2022-11-15T12:22:00;3.35;;;3.05;;
13034;SDS011;6584;48.022;11.810;2022-11-15T12:24:50;3.20;;;2.90;;
13034;SDS011;6584;48.022;11.810;2022-11-15T12:30:04;3.25;;;2.95;;
13034;SDS011;6584;48.022;11.810;2022-11-15T12:32:49;2.95;;;2.70;;
13034;SDS011;6584;48.022;11.810;2022-11-15T12:35:23;3.38;;;2.42;;
13034;SDS011;6584;48.022;11.810;2022-11-15T12:37:53;3.05;;;2.42;;
13034;SDS011;6584;48.022;11.810;2022-11-15T12:43:32;2.97;;;2.67;;
13034;SDS011;6584;48.022;11.810;2022-11-15T12:48:56;2.70;;;2.50;;
13034;SDS011;6584;48.022;11.810;2022-11-15T12:51:23;2.47;;;2.22;;
13034;SDS011;6584;48.022;11.810;2022-11-15T12:57:22;3.78;;;2.90;;
13034;SDS011;6584;48.022;11.810;2022-11-15T13:02:41;2.60;;;2.40;;
13034;SDS011;6584;48.022;11.810;2022-11-15T13:17:39;4.78;;;2.38;;
13034;SDS011;6584;48.022;11.810;2022-11-15T13:28:27;2.92;;;2.67;;
13034;SDS011;6584;48.022;11.810;2022-11-15T13:31:03;2.88;;;2.33;;
13034;SDS011;6584;48.022;11.810;2022-11-15T13:33:42;3.17;;;2.50;;
13034;SDS011;6584;48.022;11.810;2022-11-15T13:36:12;3.22;;;2.58;;
13034;SDS011;6584;48.022;11.810;2022-11-15T13:38:39;3.75;;;2.90;;
13034;SDS011;6584;48.022;11.810;2022-11-15T13:41:19;3.17;;;2.88;;
13034;SDS011;6584;48.022;11.810;2022-11-15T13:43:46;3.20;;;2.90;;
13034;SDS011;6584;48.022;11.810;2022-11-15T13:46:16;4.07;;;2.97;;
13034;SDS011;6584;48.022;11.810;2022-11-15T13:48:44;3.67;;;2.72;;
13034;SDS011;6584;48.022;11.810;2022-11-15T13:54:09;3.25;;;2.95;;
13034;SDS011;6584;48.022;11.810;2022-11-15T13:56:37;3.40;;;3.10;;
13034;SDS011;6584;48.022;11.810;2022-11-15T13:59:08;4.20;;;3.30;;
13034;SDS011;6584;48.022;11.810;2022-11-15T14:01:35;3.38;;;3.08;;
13034;SDS011;6584;48.022;11.810;2022-11-15T14:04:01;3.72;;;3.28;;
13034;SDS011;6584;48.022;11.810;2022-11-15T14:06:29;5.07;;;3.88;;
13034;SDS011;6584;48.022;11.810;2022-11-15T14:11:36;4.53;;;4.13;;
13034;SDS011;6584;48.022;11.810;2022-11-15T14:16:35;3.30;;;3.00;;
13034;SDS011;6584;48.022;11.810;2022-11-15T14:19:01;4.28;;;3.72;;
13034;SDS011;6584;48.022;11.810;2022-11-15T14:21:27;3.80;;;3.50;;
13034;SDS011;6584;48.022;11.810;2022-11-15T14:24:13;5.63;;;4.72;;
13034;SDS011;6584;48.022;11.810;2022-11-15T14:26:42;7.32;;;6.05;;
13034;SDS011;6584;48.022;11.810;2022-11-15T14:31:52;6.53;;;5.25;;
13034;SDS011;6584;48.022;11.810;2022-11-15T14:34:19;7.53;;;5.25;;
13034;SDS011;6584;48.022;11.810;2022-11-15T14:36:47;6.05;;;5.35;;
13034;SDS011;6584;48.022;11.810;2022-11-15T14:39:12;6.40;;;5.15;;
13034;SDS011;6584;48.022;11.810;2022-11-15T14:41:38;4.20;;;3.80;;
13034;SDS011;6584;48.022;11.810;2022-11-15T14:44:04;4.28;;;3.10;;
13034;SDS011;6584;48.022;11.810;2022-11-15T14:46:30;3.92;;;3.10;;
13034;SDS011;6584;48.022;11.810;2022-11-15T14:48:59;3.70;;;3.20;;
13034;SDS011;6584;48.022;11.810;2022-11-15T14:51:25;3.40;;;3.10;;
13034;SDS011;6584;48.022;11.810;2022-11-15T14:53:51;4.10;;;3.45;;
13034;SDS011;6584;48.022;11.810;2022-11-15T14:56:17;4.55;;;3.13;;
13034;SDS011;6584;48.022;11.810;2022-11-15T14:58:42;3.97;;;3.20;;
13034;SDS011;6584;48.022;11.810;2022-11-15T15:01:16;4.45;;;3.35;;
13034;SDS011;6584;48.022;11.810;2022-11-15T15:03:48;4.63;;;3.60;;
13034;SDS011;6584;48.022;11.810;2022-11-15T15:06:13;11.05;;;6.32;;
13034;SDS011;6584;48.022;11.810;2022-11-15T15:08:40;10.27;;;8.75;;
13034;SDS011;6584;48.022;11.810;2022-11-15T15:11:17;13.10;;;8.48;;
13034;SDS011;6584;48.022;11.810;2022-11-15T15:13:46;7.55;;;4.70;;
13034;SDS011;6584;48.022;11.810;2022-11-15T15:16:12;5.35;;;4.82;;
13034;SDS011;6584;48.022;11.810;2022-11-15T15:18:37;11.02;;;7.03;;
13034;SDS011;6584;48.022;11.810;2022-11-15T15:21:20;6.72;;;5.57;;
13034;SDS011;6584;48.022;11.810;2022-11-15T15:23:47;5.20;;;4.25;;
13034;SDS011;6584;48.022;11.810;2022-11-15T15:26:13;3.97;;;3.60;;
13034;SDS011;6584;48.022;11.810;2022-11-15T15:28:39;4.10;;;3.80;;
13034;SDS011;6584;48.022;11.810;2022-11-15T15:31:05;6.47;;;5.88;;
13034;SDS011;6584;48.022;11.810;2022-11-15T15:33:31;10.10;;;6.88;;
13034;SDS011;6584;48.022;11.810;2022-11-15T15:35:57;8.60;;;7.57;;
13034;SDS011;6584;48.022;11.810;2022-11-15T15:38:23;8.20;;;7.05;;
13034;SDS011;6584;48.022;11.810;2022-11-15T15:40:48;8.43;;;5.85;;
13034;SDS011;6584;48.022;11.810;2022-11-15T15:43:14;5.95;;;5.20;;
13034;SDS011;6584;48.022;11.810;2022-11-15T15:45:40;6.50;;;5.72;;
13034;SDS011;6584;48.022;11.810;2022-11-15T15:48:13;6.30;;;5.18;;
13034;SDS011;6584;48.022;11.810;2022-11-15T15:50:41;5.18;;;4.68;;
13034;SDS011;6584;48.022;11.810;2022-11-15T15:53:11;7.82;;;4.47;;
13034;SDS011;6584;48.022;11.810;2022-11-15T15:55:37;6.53;;;4.80;;
13034;SDS011;6584;48.022;11.810;2022-11-15T15:58:04;7.38;;;6.65;;
13034;SDS011;6584;48.022;11.810;2022-11-15T16:00:30;8.63;;;7.72;;
13034;SDS011;6584;48.022;11.810;2022-11-15T16:02:58;7.63;;;6.88;;
13034;SDS011;6584;48.022;11.810;2022-11-15T16:05:24;6.88;;;6.18;;
13034;SDS011;6584;48.022;11.810;2022-11-15T16:07:49;9.98;;;8.73;;
13034;SDS011;6584;48.022;11.810;2022-11-15T16:10:25;9.35;;;8.27;;
13034;SDS011;6584;48.022;11.810;2022-11-15T16:12:52;9.98;;;7.35;;
13034;SDS011;6584;48.022;11.810;2022-11-15T16:15:20;9.60;;;8.38;;
13034;SDS011;6584;48.022;11.810;2022-11-15T16:17:48;12.35;;;10.55;;
13034;SDS011;6584;48.022;11.810;2022-11-15T16:20:33;11.10;;;8.98;;
13034;SDS011;6584;48.022;11.810;2022-11-15T16:23:05;11.52;;;7.72;;
13034;SDS011;6584;48.022;11.810;2022-11-15T16:25:34;10.07;;;8.55;;
13034;SDS011;6584;48.022;11.810;2022-11-15T16:28:04;10.70;;;8.30;;
13034;SDS011;6584;48.022;11.810;2022-11-15T16:30:33;11.15;;;9.35;;
13034;SDS011;6584;48.022;11.810;2022-11-15T16:32:59;13.90;;;10.63;;
13034;SDS011;6584;48.022;11.810;2022-11-15T16:35:25;10.82;;;9.32;;
13034;SDS011;6584;48.022;11.810;2022-11-15T16:37:50;17.98;;;15.63;;
13034;SDS011;6584;48.022;11.810;2022-11-15T16:42:50;15.13;;;10.43;;
13034;SDS011;6584;48.022;11.810;2022-11-15T16:45:16;22.27;;;13.00;;
13034;SDS011;6584;48.022;11.810;2022-11-15T16:47:41;19.45;;;11.75;;
13034;SDS011;6584;48.022;11.810;2022-11-15T16:50:12;14.85;;;9.70;;
13034;SDS011;6584;48.022;11.810;2022-11-15T16:52:47;13.35;;;9.75;;
13034;SDS011;6584;48.022;11.810;2022-11-15T16:55:17;13.43;;;10.57;;
13034;SDS011;6584;48.022;11.810;2022-11-15T16:57:43;14.75;;;8.27;;
13034;SDS011;6584;48.022;11.810;2022-11-15T17:00:10;16.85;;;9.73;;
13034;SDS011;6584;48.022;11.810;2022-11-15T17:02:37;15.32;;;9.35;;
13034;SDS011;6584;48.022;11.810;2022-11-15T17:05:03;11.68;;;8.48;;
13034;SDS011;6584;48.022;11.810;2022-11-15T17:07:28;10.93;;;7.88;;